createdAt,value
2016-10-09T00:00:30.112Z,1017.13
2016-10-09T00:01:30.094Z,1017.09
2016-10-09T00:02:30.078Z,1017.08
2016-10-09T00:03:30.062Z,1017.09
2016-10-09T00:04:30.046Z,1017.13
2016-10-09T00:05:30.028Z,1017.11
2016-10-09T00:06:30.014Z,1017.09
2016-10-09T00:07:29.997Z,1017.09
2016-10-09T00:08:29.982Z,1017.14
2016-10-09T00:09:30.167Z,1017.16
2016-10-09T00:10:29.946Z,1017.13
2016-10-09T00:11:29.930Z,1017.12
2016-10-09T00:12:29.915Z,1017.13
2016-10-09T00:13:29.898Z,1017.12
2016-10-09T00:14:29.890Z,1017.13
2016-10-09T00:15:29.870Z,1017.13
2016-10-09T00:16:29.845Z,1017.1
2016-10-09T00:17:29.829Z,1017.1
2016-10-09T00:18:29.815Z,1017.13
2016-10-09T00:19:29.797Z,1017.16
2016-10-09T00:20:29.782Z,1017.15
2016-10-09T00:21:29.768Z,1017.14
2016-10-09T00:22:29.748Z,1017.16
2016-10-09T00:23:29.730Z,1017.17
2016-10-09T00:24:29.714Z,1017.2
2016-10-09T00:25:29.698Z,1017.16
2016-10-09T00:26:29.680Z,1017.17
2016-10-09T00:27:29.664Z,1017.13
2016-10-09T00:28:29.650Z,1017.17
2016-10-09T00:29:29.631Z,1017.08
2016-10-09T00:30:29.614Z,1017.12
2016-10-09T00:31:29.597Z,1017.15
2016-10-09T00:32:29.582Z,1017.18
2016-10-09T00:33:29.565Z,1017.11
2016-10-09T00:34:29.551Z,1017.12
2016-10-09T00:35:29.539Z,1017.14
2016-10-09T00:36:29.520Z,1017.18
2016-10-09T00:37:29.501Z,1017.2
2016-10-09T00:38:29.484Z,1017.21
2016-10-09T00:39:29.478Z,1017.19
2016-10-09T00:40:29.452Z,1017.2
2016-10-09T00:41:29.438Z,1017.18
2016-10-09T00:42:29.417Z,1017.19
2016-10-09T00:43:29.401Z,1017.2
2016-10-09T00:44:29.394Z,1017.18
2016-10-09T00:45:29.372Z,1017.17
2016-10-09T00:46:29.353Z,1017.16
2016-10-09T00:47:29.338Z,1017.13
2016-10-09T00:48:29.318Z,1017.14
2016-10-09T00:49:29.306Z,1017.06
2016-10-09T00:50:29.286Z,1017.1
2016-10-09T00:51:29.271Z,1017.08
2016-10-09T00:52:29.260Z,1017.08
2016-10-09T00:53:29.237Z,1017.1
2016-10-09T00:54:29.220Z,1017.06
2016-10-09T00:55:29.203Z,1017.03
2016-10-09T00:56:29.197Z,1017.07
2016-10-09T00:57:29.171Z,1017.06
2016-10-09T00:58:29.154Z,1017.06
2016-10-09T00:59:29.139Z,1017.02
2016-10-09T01:00:29.120Z,1017.02
2016-10-09T01:01:29.105Z,1017.06
2016-10-09T01:02:29.091Z,1017.04
2016-10-09T01:03:29.079Z,1017.04
2016-10-09T01:04:29.258Z,1017.03
2016-10-09T01:05:29.038Z,1017.03
2016-10-09T01:06:29.025Z,1017.03
2016-10-09T01:07:29.004Z,1017.02
2016-10-09T01:08:28.991Z,1017.01
2016-10-09T01:09:28.973Z,1017.04
2016-10-09T01:10:28.957Z,1017.02
2016-10-09T01:11:28.939Z,1017.03
2016-10-09T01:12:28.923Z,1017.01
2016-10-09T01:13:28.906Z,1017.01
2016-10-09T01:14:28.890Z,1016.95
2016-10-09T01:15:28.873Z,1016.98
2016-10-09T01:16:28.858Z,1016.97
2016-10-09T01:17:28.841Z,1016.96
2016-10-09T01:18:28.824Z,1016.98
2016-10-09T01:19:28.807Z,1016.92
2016-10-09T01:20:28.792Z,1016.96
2016-10-09T01:21:28.775Z,1016.92
2016-10-09T01:22:28.758Z,1016.94
2016-10-09T01:23:28.741Z,1016.93
2016-10-09T01:24:28.725Z,1016.94
2016-10-09T01:25:28.710Z,1016.93
2016-10-09T01:26:28.692Z,1016.93
2016-10-09T01:27:28.676Z,1016.94
2016-10-09T01:28:28.661Z,1016.93
2016-10-09T01:29:28.644Z,1016.93
2016-10-09T01:30:28.628Z,1016.93
2016-10-09T01:31:28.619Z,1016.91
2016-10-09T01:32:28.596Z,1016.9
2016-10-09T01:33:28.578Z,1016.9
2016-10-09T01:34:28.562Z,1016.85
2016-10-09T01:35:28.546Z,1016.86
2016-10-09T01:36:28.530Z,1016.83
2016-10-09T01:37:28.515Z,1016.81
2016-10-09T01:38:28.497Z,1016.82
2016-10-09T01:39:28.479Z,1016.8
2016-10-09T01:40:28.464Z,1016.81
2016-10-09T01:41:28.447Z,1016.81
2016-10-09T01:42:28.431Z,1016.8
2016-10-09T01:43:28.414Z,1016.79
2016-10-09T01:44:28.399Z,1016.82
2016-10-09T01:45:28.382Z,1016.79
2016-10-09T01:46:28.367Z,1016.81
2016-10-09T01:47:28.349Z,1016.8
2016-10-09T01:48:28.334Z,1016.79
2016-10-09T01:49:28.318Z,1016.79
2016-10-09T01:50:28.302Z,1016.79
2016-10-09T01:51:28.285Z,1016.78
2016-10-09T01:52:28.270Z,1016.81
2016-10-09T01:53:28.252Z,1016.8
2016-10-09T01:54:28.236Z,1016.82
2016-10-09T01:55:28.222Z,1016.81
2016-10-09T01:56:28.204Z,1016.82
2016-10-09T01:57:28.191Z,1016.82
2016-10-09T01:58:28.173Z,1016.84
2016-10-09T01:59:28.154Z,1016.84
2016-10-09T02:00:28.141Z,1016.85
2016-10-09T02:01:28.125Z,1016.81
2016-10-09T02:02:28.109Z,1016.82
2016-10-09T02:03:28.098Z,1016.79
2016-10-09T02:04:28.077Z,1016.8
2016-10-09T02:05:28.060Z,1016.82
2016-10-09T02:06:28.104Z,1016.82
2016-10-09T02:07:28.026Z,1016.81
2016-10-09T02:08:28.012Z,1016.83
2016-10-09T02:09:27.994Z,1016.84
2016-10-09T02:10:27.979Z,1016.81
2016-10-09T02:11:27.963Z,1016.84
2016-10-09T02:12:27.949Z,1016.83
2016-10-09T02:13:27.930Z,1016.82
2016-10-09T02:14:27.915Z,1016.85
2016-10-09T02:15:27.899Z,1016.82
2016-10-09T02:16:27.883Z,1016.82
2016-10-09T02:17:27.867Z,1016.84
2016-10-09T02:18:27.851Z,1016.84
2016-10-09T02:19:27.834Z,1016.84
2016-10-09T02:20:27.820Z,1016.82
2016-10-09T02:21:27.802Z,1016.85
2016-10-09T02:22:27.787Z,1016.87
2016-10-09T02:23:27.770Z,1016.89
2016-10-09T02:24:27.754Z,1016.85
2016-10-09T02:25:27.738Z,1016.88
2016-10-09T02:26:27.722Z,1016.84
2016-10-09T02:27:27.706Z,1016.82
2016-10-09T02:28:27.691Z,1016.84
2016-10-09T02:29:27.675Z,1016.85
2016-10-09T02:30:27.659Z,1016.82
2016-10-09T02:31:27.644Z,1016.81
2016-10-09T02:32:27.626Z,1016.8
2016-10-09T02:33:27.610Z,1016.81
2016-10-09T02:34:27.595Z,1016.77
2016-10-09T02:35:27.582Z,1016.8
2016-10-09T02:36:27.563Z,1016.74
2016-10-09T02:37:27.548Z,1016.77
2016-10-09T02:38:27.532Z,1016.7
2016-10-09T02:39:27.516Z,1016.73
2016-10-09T02:40:27.501Z,1016.73
2016-10-09T02:41:27.484Z,1016.71
2016-10-09T02:42:27.468Z,1016.74
2016-10-09T02:43:27.455Z,1016.72
2016-10-09T02:44:27.439Z,1016.74
2016-10-09T02:45:27.433Z,1016.74
2016-10-09T02:46:27.411Z,1016.71
2016-10-09T02:47:27.395Z,1016.73
2016-10-09T02:48:27.375Z,1016.71
2016-10-09T02:49:27.361Z,1016.72
2016-10-09T02:50:27.347Z,1016.74
2016-10-09T02:51:27.327Z,1016.77
2016-10-09T02:52:27.313Z,1016.78
2016-10-09T02:53:27.299Z,1016.75
2016-10-09T02:54:27.280Z,1016.76
2016-10-09T02:55:27.265Z,1016.77
2016-10-09T02:56:27.258Z,1016.75
2016-10-09T02:57:27.234Z,1016.75
2016-10-09T02:58:27.217Z,1016.73
2016-10-09T02:59:27.204Z,1016.7
2016-10-09T03:00:27.186Z,1016.7
2016-10-09T03:01:27.171Z,1016.69
2016-10-09T03:02:27.155Z,1016.7
2016-10-09T03:03:27.141Z,1016.71
2016-10-09T03:04:27.325Z,1016.74
2016-10-09T03:05:27.108Z,1016.73
2016-10-09T03:06:27.092Z,1016.7
2016-10-09T03:07:27.079Z,1016.67
2016-10-09T03:08:27.062Z,1016.67
2016-10-09T03:09:27.046Z,1016.69
2016-10-09T03:10:27.030Z,1016.7
2016-10-09T03:11:27.015Z,1016.72
2016-10-09T03:12:26.999Z,1016.76
2016-10-09T03:13:26.982Z,1016.76
2016-10-09T03:14:26.967Z,1016.74
2016-10-09T03:15:26.952Z,1016.73
2016-10-09T03:16:26.936Z,1016.75
2016-10-09T03:17:26.921Z,1016.71
2016-10-09T03:18:26.906Z,1016.7
2016-10-09T03:19:26.888Z,1016.69
2016-10-09T03:20:26.874Z,1016.67
2016-10-09T03:21:26.859Z,1016.67
2016-10-09T03:22:26.844Z,1016.71
2016-10-09T03:23:26.826Z,1016.71
2016-10-09T03:24:26.810Z,1016.7
2016-10-09T03:25:26.795Z,1016.69
2016-10-09T03:26:26.778Z,1016.7
2016-10-09T03:27:26.763Z,1016.71
2016-10-09T03:28:26.749Z,1016.7
2016-10-09T03:29:26.734Z,1016.68
2016-10-09T03:30:26.719Z,1016.69
2016-10-09T03:31:26.704Z,1016.67
2016-10-09T03:32:26.685Z,1016.69
2016-10-09T03:33:26.670Z,1016.73
2016-10-09T03:34:26.656Z,1016.71
2016-10-09T03:35:26.639Z,1016.67
2016-10-09T03:36:26.623Z,1016.69
2016-10-09T03:37:26.608Z,1016.68
2016-10-09T03:38:26.593Z,1016.64
2016-10-09T03:39:26.576Z,1016.61
2016-10-09T03:40:26.561Z,1016.6
2016-10-09T03:41:26.544Z,1016.64
2016-10-09T03:42:26.532Z,1016.62
2016-10-09T03:43:26.515Z,1016.65
2016-10-09T03:44:26.499Z,1016.64
2016-10-09T03:45:26.486Z,1016.62
2016-10-09T03:46:26.470Z,1016.59
2016-10-09T03:47:26.456Z,1016.59
2016-10-09T03:48:26.440Z,1016.59
2016-10-09T03:49:26.421Z,1016.59
2016-10-09T03:50:26.408Z,1016.58
2016-10-09T03:51:26.392Z,1016.59
2016-10-09T03:52:26.376Z,1016.6
2016-10-09T03:53:26.359Z,1016.61
2016-10-09T03:54:26.345Z,1016.58
2016-10-09T03:55:26.330Z,1016.59
2016-10-09T03:56:26.313Z,1016.62
2016-10-09T03:57:26.298Z,1016.61
2016-10-09T03:58:26.283Z,1016.57
2016-10-09T03:59:26.265Z,1016.62
2016-10-09T04:00:26.250Z,1016.59
2016-10-09T04:01:26.235Z,1016.6
2016-10-09T04:02:26.221Z,1016.62
2016-10-09T04:03:26.204Z,1016.58
2016-10-09T04:04:26.189Z,1016.56
2016-10-09T04:05:26.175Z,1016.6
2016-10-09T04:06:26.157Z,1016.59
2016-10-09T04:07:26.142Z,1016.59
2016-10-09T04:08:26.127Z,1016.61
2016-10-09T04:09:26.112Z,1016.59
2016-10-09T04:10:26.096Z,1016.6
2016-10-09T04:11:26.080Z,1016.58
2016-10-09T04:12:26.064Z,1016.56
2016-10-09T04:13:26.050Z,1016.6
2016-10-09T04:14:26.035Z,1016.59
2016-10-09T04:15:26.019Z,1016.64
2016-10-09T04:16:26.003Z,1016.62
2016-10-09T04:17:25.988Z,1016.6
2016-10-09T04:18:25.971Z,1016.62
2016-10-09T04:19:25.956Z,1016.64
2016-10-09T04:20:25.940Z,1016.63
2016-10-09T04:21:25.925Z,1016.61
2016-10-09T04:22:25.908Z,1016.63
2016-10-09T04:23:25.894Z,1016.62
2016-10-09T04:24:25.878Z,1016.61
2016-10-09T04:25:25.862Z,1016.65
2016-10-09T04:26:25.847Z,1016.68
2016-10-09T04:27:25.831Z,1016.67
2016-10-09T04:28:25.817Z,1016.68
2016-10-09T04:29:25.804Z,1016.62
2016-10-09T04:30:25.784Z,1016.61
2016-10-09T04:31:25.772Z,1016.63
2016-10-09T04:32:25.753Z,1016.64
2016-10-09T04:33:25.739Z,1016.63
2016-10-09T04:34:25.724Z,1016.68
2016-10-09T04:35:25.707Z,1016.61
2016-10-09T04:36:25.690Z,1016.62
2016-10-09T04:37:25.677Z,1016.65
2016-10-09T04:38:25.663Z,1016.64
2016-10-09T04:39:25.646Z,1016.64
2016-10-09T04:40:25.631Z,1016.65
2016-10-09T04:41:25.613Z,1016.6
2016-10-09T04:42:25.598Z,1016.64
2016-10-09T04:43:25.582Z,1016.64
2016-10-09T04:44:25.566Z,1016.64
2016-10-09T04:45:25.550Z,1016.61
2016-10-09T04:46:25.536Z,1016.64
2016-10-09T04:47:25.520Z,1016.63
2016-10-09T04:48:25.504Z,1016.59
2016-10-09T04:49:25.488Z,1016.59
2016-10-09T04:50:25.471Z,1016.61
2016-10-09T04:51:25.457Z,1016.56
2016-10-09T04:52:25.440Z,1016.56
2016-10-09T04:53:25.427Z,1016.59
2016-10-09T04:54:25.408Z,1016.67
2016-10-09T04:55:25.393Z,1016.67
2016-10-09T04:56:25.377Z,1016.64
2016-10-09T04:57:25.364Z,1016.63
2016-10-09T04:58:25.345Z,1016.64
2016-10-09T04:59:25.331Z,1016.62
2016-10-09T05:00:25.315Z,1016.6
2016-10-09T05:01:25.300Z,1016.62
2016-10-09T05:02:25.282Z,1016.65
2016-10-09T05:03:25.267Z,1016.63
2016-10-09T05:04:25.454Z,1016.64
2016-10-09T05:05:25.235Z,1016.66
2016-10-09T05:06:25.219Z,1016.63
2016-10-09T05:07:25.203Z,1016.65
2016-10-09T05:08:25.190Z,1016.65
2016-10-09T05:09:25.171Z,1016.61
2016-10-09T05:10:25.158Z,1016.65
2016-10-09T05:11:25.141Z,1016.66
2016-10-09T05:12:25.124Z,1016.65
2016-10-09T05:13:25.111Z,1016.62
2016-10-09T05:14:25.098Z,1016.61
2016-10-09T05:15:25.090Z,1016.69
2016-10-09T05:16:25.062Z,1016.67
2016-10-09T05:17:25.046Z,1016.68
2016-10-09T05:18:25.031Z,1016.7
2016-10-09T05:19:25.017Z,1016.67
2016-10-09T05:20:25.000Z,1016.68
2016-10-09T05:21:24.984Z,1016.69
2016-10-09T05:22:24.967Z,1016.67
2016-10-09T05:23:24.951Z,1016.66
2016-10-09T05:24:24.937Z,1016.65
2016-10-09T05:25:24.918Z,1016.67
2016-10-09T05:26:24.904Z,1016.64
2016-10-09T05:27:24.885Z,1016.7
2016-10-09T05:28:24.871Z,1016.69
2016-10-09T05:29:24.857Z,1016.65
2016-10-09T05:30:24.837Z,1016.69
2016-10-09T05:31:24.822Z,1016.67
2016-10-09T05:32:24.806Z,1016.69
2016-10-09T05:33:24.790Z,1016.71
2016-10-09T05:34:24.774Z,1016.71
2016-10-09T05:35:24.758Z,1016.69
2016-10-09T05:36:24.742Z,1016.7
2016-10-09T05:37:24.729Z,1016.69
2016-10-09T05:38:24.710Z,1016.68
2016-10-09T05:39:24.693Z,1016.71
2016-10-09T05:40:24.677Z,1016.72
2016-10-09T05:41:24.661Z,1016.72
2016-10-09T05:42:24.645Z,1016.72
2016-10-09T05:43:24.630Z,1016.69
2016-10-09T05:44:24.613Z,1016.71
2016-10-09T05:45:24.596Z,1016.7
2016-10-09T05:46:24.581Z,1016.71
2016-10-09T05:47:24.564Z,1016.68
2016-10-09T05:48:24.549Z,1016.72
2016-10-09T05:49:24.532Z,1016.69
2016-10-09T05:50:24.516Z,1016.69
2016-10-09T05:51:24.503Z,1016.73
2016-10-09T05:52:24.484Z,1016.71
2016-10-09T05:53:24.467Z,1016.75
2016-10-09T05:54:24.452Z,1016.71
2016-10-09T05:55:24.437Z,1016.76
2016-10-09T05:56:24.418Z,1016.76
2016-10-09T05:57:24.402Z,1016.73
2016-10-09T05:58:24.387Z,1016.73
2016-10-09T05:59:24.373Z,1016.7
2016-10-09T06:00:24.354Z,1016.69
2016-10-09T06:01:24.339Z,1016.68
2016-10-09T06:02:24.322Z,1016.73
2016-10-09T06:03:24.307Z,1016.71
2016-10-09T06:04:24.288Z,1016.74
2016-10-09T06:05:24.273Z,1016.74
2016-10-09T06:06:24.256Z,1016.8
2016-10-09T06:07:24.242Z,1016.73
2016-10-09T06:08:24.226Z,1016.78
2016-10-09T06:09:24.207Z,1016.75
2016-10-09T06:10:24.192Z,1016.78
2016-10-09T06:11:24.175Z,1016.76
2016-10-09T06:12:24.159Z,1016.77
2016-10-09T06:13:24.142Z,1016.79
2016-10-09T06:14:24.125Z,1016.79
2016-10-09T06:15:24.109Z,1016.81
2016-10-09T06:16:24.092Z,1016.79
2016-10-09T06:17:24.076Z,1016.79
2016-10-09T06:18:24.061Z,1016.8
2016-10-09T06:19:24.044Z,1016.78
2016-10-09T06:20:24.029Z,1016.86
2016-10-09T06:21:24.010Z,1016.84
2016-10-09T06:22:23.993Z,1016.84
2016-10-09T06:23:23.979Z,1016.84
2016-10-09T06:24:23.961Z,1016.86
2016-10-09T06:25:23.946Z,1016.88
2016-10-09T06:26:23.932Z,1016.86
2016-10-09T06:27:23.912Z,1016.86
2016-10-09T06:28:23.897Z,1016.89
2016-10-09T06:29:23.877Z,1016.85
2016-10-09T06:30:23.867Z,1016.86
2016-10-09T06:31:23.855Z,1016.86
2016-10-09T06:32:23.832Z,1016.86
2016-10-09T06:33:23.816Z,1016.85
2016-10-09T06:34:23.796Z,1016.84
2016-10-09T06:35:23.785Z,1016.83
2016-10-09T06:36:23.763Z,1016.88
2016-10-09T06:37:23.746Z,1016.84
2016-10-09T06:38:23.732Z,1016.84
2016-10-09T06:39:23.718Z,1016.87
2016-10-09T06:40:23.697Z,1016.86
2016-10-09T06:41:23.680Z,1016.89
2016-10-09T06:42:23.663Z,1016.92
2016-10-09T06:43:23.650Z,1016.93
2016-10-09T06:44:23.676Z,1016.96
2016-10-09T06:45:23.622Z,1016.93
2016-10-09T06:46:23.600Z,1016.92
2016-10-09T06:47:23.581Z,1016.9
2016-10-09T06:48:23.564Z,1016.92
2016-10-09T06:49:23.551Z,1016.92
2016-10-09T06:50:23.534Z,1016.97
2016-10-09T06:51:23.515Z,1016.95
2016-10-09T06:52:23.500Z,1016.99
2016-10-09T06:53:23.483Z,1016.96
2016-10-09T06:54:23.466Z,1016.98
2016-10-09T06:55:23.451Z,1016.97
2016-10-09T06:56:23.436Z,1016.98
2016-10-09T06:57:23.423Z,1016.94
2016-10-09T06:58:23.402Z,1016.97
2016-10-09T06:59:23.387Z,1016.97
2016-10-09T07:00:23.369Z,1016.93
2016-10-09T07:01:23.353Z,1016.93
2016-10-09T07:02:23.335Z,1016.98
2016-10-09T07:03:23.319Z,1016.98
2016-10-09T07:04:23.505Z,1017
2016-10-09T07:05:23.286Z,1016.98
2016-10-09T07:06:23.270Z,1017.02
2016-10-09T07:07:23.254Z,1017.03
2016-10-09T07:08:23.238Z,1017.03
2016-10-09T07:09:23.220Z,1017.04
2016-10-09T07:10:23.206Z,1017.01
2016-10-09T07:11:23.189Z,1016.98
2016-10-09T07:12:23.174Z,1016.98
2016-10-09T07:13:23.167Z,1016.99
2016-10-09T07:14:23.140Z,1016.99
2016-10-09T07:15:23.126Z,1017.01
2016-10-09T07:16:23.109Z,1017.02
2016-10-09T07:17:23.092Z,1017.04
2016-10-09T07:18:23.077Z,1017.03
2016-10-09T07:19:23.063Z,1017.01
2016-10-09T07:20:23.044Z,1017.01
2016-10-09T07:21:23.032Z,1017.01
2016-10-09T07:22:23.013Z,1017.03
2016-10-09T07:23:22.996Z,1017.02
2016-10-09T07:24:22.980Z,1017.01
2016-10-09T07:25:22.966Z,1017.02
2016-10-09T07:26:22.950Z,1017.04
2016-10-09T07:27:22.936Z,1017.08
2016-10-09T07:28:22.915Z,1017.11
2016-10-09T07:29:22.899Z,1017.11
2016-10-09T07:30:22.884Z,1017.08
2016-10-09T07:31:22.870Z,1017.11
2016-10-09T07:32:22.852Z,1017.14
2016-10-09T07:33:22.836Z,1017.13
2016-10-09T07:34:22.820Z,1017.13
2016-10-09T07:35:22.805Z,1017.11
2016-10-09T07:36:22.789Z,1017.11
2016-10-09T07:37:22.775Z,1017.12
2016-10-09T07:38:22.756Z,1017.1
2016-10-09T07:39:22.742Z,1017.12
2016-10-09T07:40:22.727Z,1017.11
2016-10-09T07:41:22.712Z,1017.09
2016-10-09T07:42:22.692Z,1017.11
2016-10-09T07:43:22.680Z,1017.13
2016-10-09T07:44:22.664Z,1017.13
2016-10-09T07:45:22.648Z,1017.1
2016-10-09T07:46:22.631Z,1017.11
2016-10-09T07:47:22.615Z,1017.09
2016-10-09T07:48:22.601Z,1017.11
2016-10-09T07:49:22.590Z,1017.07
2016-10-09T07:50:22.567Z,1017.07
2016-10-09T07:51:22.552Z,1017.07
2016-10-09T07:52:22.538Z,1017.1
2016-10-09T07:53:22.522Z,1017.13
2016-10-09T07:54:22.505Z,1017.19
2016-10-09T07:55:22.491Z,1017.15
2016-10-09T07:56:22.475Z,1017.18
2016-10-09T07:57:22.460Z,1017.17
2016-10-09T07:58:22.444Z,1017.16
2016-10-09T07:59:22.428Z,1017.21
2016-10-09T08:00:22.462Z,1017.19
2016-10-09T08:01:22.398Z,1017.16
2016-10-09T08:02:22.383Z,1017.18
2016-10-09T08:03:22.368Z,1017.23
2016-10-09T08:04:22.353Z,1017.22
2016-10-09T08:05:22.335Z,1017.25
2016-10-09T08:06:22.325Z,1017.18
2016-10-09T08:07:22.306Z,1017.13
2016-10-09T08:08:22.290Z,1017.16
2016-10-09T08:09:22.275Z,1017.19
2016-10-09T08:10:22.261Z,1017.15
2016-10-09T08:11:22.243Z,1017.16
2016-10-09T08:12:22.229Z,1017.15
2016-10-09T08:13:22.217Z,1017.14
2016-10-09T08:14:22.201Z,1017.16
2016-10-09T08:15:22.236Z,1017.11
2016-10-09T08:16:22.171Z,1017.13
2016-10-09T08:17:22.155Z,1017.14
2016-10-09T08:18:22.140Z,1017.16
2016-10-09T08:19:22.129Z,1017.17
2016-10-09T08:20:22.112Z,1017.13
2016-10-09T08:21:22.096Z,1017.12
2016-10-09T08:22:22.081Z,1017.15
2016-10-09T08:23:22.065Z,1017.15
2016-10-09T08:24:22.051Z,1017.14
2016-10-09T08:25:22.036Z,1017.11
2016-10-09T08:26:22.020Z,1017.13
2016-10-09T08:27:22.006Z,1017.14
2016-10-09T08:28:21.992Z,1017.12
2016-10-09T08:29:21.977Z,1017.16
2016-10-09T08:30:21.964Z,1017.13
2016-10-09T08:31:21.950Z,1017.15
2016-10-09T08:32:21.935Z,1017.16
2016-10-09T08:33:21.920Z,1017.15
2016-10-09T08:34:21.906Z,1017.19
2016-10-09T08:35:21.891Z,1017.15
2016-10-09T08:36:21.877Z,1017.2
2016-10-09T08:37:21.862Z,1017.17
2016-10-09T08:38:21.848Z,1017.15
2016-10-09T08:39:21.833Z,1017.2
2016-10-09T08:40:21.819Z,1017.19
2016-10-09T08:41:21.806Z,1017.22
2016-10-09T08:42:21.790Z,1017.19
2016-10-09T08:43:21.777Z,1017.21
2016-10-09T08:44:21.762Z,1017.23
2016-10-09T08:45:21.750Z,1017.2
2016-10-09T08:46:21.736Z,1017.17
2016-10-09T08:47:21.721Z,1017.17
2016-10-09T08:48:21.707Z,1017.21
2016-10-09T08:49:21.693Z,1017.23
2016-10-09T08:50:21.676Z,1017.22
2016-10-09T08:51:21.663Z,1017.19
2016-10-09T08:52:21.650Z,1017.25
2016-10-09T08:53:21.635Z,1017.24
2016-10-09T08:54:21.620Z,1017.18
2016-10-09T08:55:21.607Z,1017.24
2016-10-09T08:56:21.592Z,1017.23
2016-10-09T08:57:21.584Z,1017.26
2016-10-09T08:58:21.564Z,1017.26
2016-10-09T08:59:21.553Z,1017.28
2016-10-09T09:00:21.543Z,1017.3
2016-10-09T09:01:21.523Z,1017.29
2016-10-09T09:02:21.523Z,1017.33
2016-10-09T09:03:21.500Z,1017.32
2016-10-09T09:04:21.901Z,1017.34
2016-10-09T09:05:21.469Z,1017.34
2016-10-09T09:06:21.451Z,1017.31
2016-10-09T09:07:21.437Z,1017.28
2016-10-09T09:08:21.425Z,1017.28
2016-10-09T09:09:21.410Z,1017.27
2016-10-09T09:10:21.396Z,1017.3
2016-10-09T09:11:21.431Z,1017.29
2016-10-09T09:12:21.368Z,1017.25
2016-10-09T09:13:21.355Z,1017.26
2016-10-09T09:14:21.341Z,1017.26
2016-10-09T09:15:21.326Z,1017.24
2016-10-09T09:16:21.364Z,1017.26
2016-10-09T09:17:21.299Z,1017.3
2016-10-09T09:18:21.286Z,1017.26
2016-10-09T09:19:21.273Z,1017.3
2016-10-09T09:20:21.260Z,1017.21
2016-10-09T09:21:21.245Z,1017.25
2016-10-09T09:22:21.230Z,1017.21
2016-10-09T09:23:21.216Z,1017.23
2016-10-09T09:24:21.205Z,1017.23
2016-10-09T09:25:21.282Z,1017.27
2016-10-09T09:26:21.176Z,1017.23
2016-10-09T09:27:21.161Z,1017.22
2016-10-09T09:28:21.148Z,1017.2
2016-10-09T09:29:21.134Z,1017.22
2016-10-09T09:30:21.122Z,1017.15
2016-10-09T09:31:21.110Z,1017.18
2016-10-09T09:32:21.094Z,1017.19
2016-10-09T09:33:21.082Z,1017.17
2016-10-09T09:34:21.067Z,1017.15
2016-10-09T09:35:21.052Z,1017.17
2016-10-09T09:36:21.038Z,1017.17
2016-10-09T09:37:21.026Z,1017.13
2016-10-09T09:38:21.015Z,1017.13
2016-10-09T09:39:20.999Z,1017.15
2016-10-09T09:40:20.985Z,1017.14
2016-10-09T09:41:20.981Z,1017.12
2016-10-09T09:42:20.960Z,1017.06
2016-10-09T09:43:20.944Z,1017.1
2016-10-09T09:44:20.935Z,1017.07
2016-10-09T09:45:20.918Z,1017.1
2016-10-09T09:46:20.907Z,1017.08
2016-10-09T09:47:20.893Z,1017.09
2016-10-09T09:48:20.881Z,1017.09
2016-10-09T09:49:20.865Z,1017.11
2016-10-09T09:50:20.851Z,1017.07
2016-10-09T09:51:20.840Z,1017.09
2016-10-09T09:52:20.825Z,1017.07
2016-10-09T09:53:20.811Z,1017.08
2016-10-09T09:54:20.797Z,1017.08
2016-10-09T09:55:20.786Z,1017.12
2016-10-09T09:56:20.771Z,1017.06
2016-10-09T09:57:20.757Z,1017.12
2016-10-09T09:58:20.752Z,1017.07
2016-10-09T09:59:20.731Z,1017.08
2016-10-09T10:00:20.720Z,1017.05
2016-10-09T10:01:20.705Z,1017.04
2016-10-09T10:02:20.693Z,1017.1
2016-10-09T10:03:20.679Z,1017.06
2016-10-09T10:04:20.665Z,1017.08
2016-10-09T10:05:20.653Z,1017.07
2016-10-09T10:06:20.641Z,1017.07
2016-10-09T10:07:20.629Z,1017.08
2016-10-09T10:08:20.619Z,1017.09
2016-10-09T10:09:20.606Z,1017.07
2016-10-09T10:10:20.593Z,1017.09
2016-10-09T10:11:20.577Z,1017.12
2016-10-09T10:12:20.564Z,1017.07
2016-10-09T10:13:20.551Z,1017.05
2016-10-09T10:14:20.539Z,1017.04
2016-10-09T10:15:20.522Z,1017.01
2016-10-09T10:16:20.512Z,1017.01
2016-10-09T10:17:20.504Z,1017.05
2016-10-09T10:18:20.489Z,1017.09
2016-10-09T10:19:20.474Z,1017.06
2016-10-09T10:20:20.461Z,1017.08
2016-10-09T10:21:20.449Z,1017.1
2016-10-09T10:22:20.436Z,1017.09
2016-10-09T10:23:20.425Z,1017.09
2016-10-09T10:24:20.413Z,1017.1
2016-10-09T10:25:20.399Z,1017.1
2016-10-09T10:26:20.392Z,1017.11
2016-10-09T10:27:20.375Z,1017.09
2016-10-09T10:28:20.362Z,1017.07
2016-10-09T10:29:20.360Z,1017.07
2016-10-09T10:30:20.338Z,1017.1
2016-10-09T10:31:20.326Z,1017.1
2016-10-09T10:32:20.315Z,1017.06
2016-10-09T10:33:20.302Z,1017.08
2016-10-09T10:34:20.290Z,1017.06
2016-10-09T10:35:20.279Z,1017.05
2016-10-09T10:36:20.271Z,1017.04
2016-10-09T10:37:20.256Z,1017.04
2016-10-09T10:38:20.244Z,1017.08
2016-10-09T10:39:20.232Z,1017.08
2016-10-09T10:40:20.221Z,1017.06
2016-10-09T10:41:20.210Z,1017.03
2016-10-09T10:42:20.249Z,1017.07
2016-10-09T10:43:20.188Z,1017.09
2016-10-09T10:44:20.178Z,1017.08
2016-10-09T10:45:20.164Z,1017.04
2016-10-09T10:46:20.152Z,1017.03
2016-10-09T10:47:20.194Z,1017.03
2016-10-09T10:48:20.131Z,1017.03
2016-10-09T10:49:20.122Z,1017.06
2016-10-09T10:50:20.116Z,1017.05
2016-10-09T10:51:20.100Z,1017
2016-10-09T10:52:20.093Z,1017
2016-10-09T10:53:20.080Z,1017.01
2016-10-09T10:54:20.070Z,1016.97
2016-10-09T10:55:20.060Z,1016.93
2016-10-09T10:56:20.048Z,1016.97
2016-10-09T10:57:20.038Z,1016.92
2016-10-09T10:58:20.029Z,1016.93
2016-10-09T10:59:20.018Z,1016.88
2016-10-09T11:00:20.009Z,1016.88
2016-10-09T11:01:19.999Z,1016.85
2016-10-09T11:02:19.990Z,1016.84
2016-10-09T11:03:19.979Z,1016.89
2016-10-09T11:04:19.969Z,1016.89
2016-10-09T11:05:19.960Z,1016.83
2016-10-09T11:06:19.956Z,1016.86
2016-10-09T11:07:19.940Z,1016.87
2016-10-09T11:08:19.933Z,1016.83
2016-10-09T11:09:19.925Z,1016.84
2016-10-09T11:10:19.911Z,1016.82
2016-10-09T11:11:19.904Z,1016.83
2016-10-09T11:12:19.893Z,1016.78
2016-10-09T11:13:19.884Z,1016.79
2016-10-09T11:14:19.911Z,1016.81
2016-10-09T11:15:19.865Z,1016.82
2016-10-09T11:16:19.858Z,1016.8
2016-10-09T11:17:19.846Z,1016.8
2016-10-09T11:18:19.837Z,1016.8
2016-10-09T11:19:19.828Z,1016.82
2016-10-09T11:20:19.855Z,1016.78
2016-10-09T11:21:19.809Z,1016.84
2016-10-09T11:22:19.800Z,1016.85
2016-10-09T11:23:19.792Z,1016.85
2016-10-09T11:24:19.786Z,1016.86
2016-10-09T11:25:19.772Z,1016.8
2016-10-09T11:26:19.765Z,1016.79
2016-10-09T11:27:19.757Z,1016.82
2016-10-09T11:28:19.748Z,1016.77
2016-10-09T11:29:19.741Z,1016.79
2016-10-09T11:30:19.733Z,1016.8
2016-10-09T11:31:19.726Z,1016.75
2016-10-09T11:32:19.715Z,1016.81
2016-10-09T11:33:19.709Z,1016.79
2016-10-09T11:34:19.699Z,1016.76
2016-10-09T11:35:19.694Z,1016.78
2016-10-09T11:36:19.683Z,1016.8
2016-10-09T11:37:19.673Z,1016.79
2016-10-09T11:38:19.665Z,1016.77
2016-10-09T11:39:19.657Z,1016.76
2016-10-09T11:40:19.648Z,1016.76
2016-10-09T11:41:19.639Z,1016.7
2016-10-09T11:42:19.632Z,1016.73
2016-10-09T11:43:19.622Z,1016.75
2016-10-09T11:44:19.611Z,1016.72
2016-10-09T11:45:19.605Z,1016.74
2016-10-09T11:46:19.595Z,1016.72
2016-10-09T11:47:19.585Z,1016.7
2016-10-09T11:48:19.577Z,1016.68
2016-10-09T11:49:19.565Z,1016.67
2016-10-09T11:50:19.557Z,1016.7
2016-10-09T11:51:19.547Z,1016.67
2016-10-09T11:52:19.537Z,1016.65
2016-10-09T11:53:19.528Z,1016.64
2016-10-09T11:54:19.518Z,1016.64
2016-10-09T11:55:19.508Z,1016.62
2016-10-09T11:56:19.500Z,1016.63
2016-10-09T11:57:19.493Z,1016.6
2016-10-09T11:58:19.486Z,1016.59
2016-10-09T11:59:19.473Z,1016.61
2016-10-09T12:00:19.462Z,1016.6
2016-10-09T12:01:19.454Z,1016.57
2016-10-09T12:02:19.444Z,1016.55
2016-10-09T12:03:19.434Z,1016.55
2016-10-09T12:04:19.425Z,1016.53
2016-10-09T12:05:19.415Z,1016.53
2016-10-09T12:06:19.405Z,1016.57
2016-10-09T12:07:19.397Z,1016.53
2016-10-09T12:08:19.389Z,1016.47